createdAt,value
2023-03-23T15:59:15.609Z,17.40
2023-03-23T16:01:43.617Z,17.30
2023-03-23T16:04:18.150Z,17.30
2023-03-23T16:06:45.695Z,17.30
2023-03-23T16:09:15.945Z,17.20
2023-03-23T16:11:42.901Z,17.20
2023-03-23T16:14:10.426Z,17.10
2023-03-23T16:16:41.319Z,17.20
2023-03-23T16:19:11.298Z,17.10
2023-03-23T16:21:38.188Z,17.00
2023-03-23T16:24:05.180Z,16.90
2023-03-23T16:26:32.352Z,16.90
2023-03-23T16:29:09.937Z,16.80
2023-03-23T16:31:39.872Z,16.80
2023-03-23T16:34:08.039Z,16.70
2023-03-23T16:36:35.449Z,16.70
2023-03-23T16:39:02.560Z,16.70
2023-03-23T16:41:29.508Z,16.80
2023-03-23T16:43:56.476Z,16.70
2023-03-23T16:46:23.780Z,16.70
2023-03-23T16:48:50.930Z,16.70
2023-03-23T16:51:17.720Z,16.60
2023-03-23T16:53:44.488Z,16.60
2023-03-23T16:56:11.406Z,16.70
2023-03-23T16:58:38.363Z,16.60
2023-03-23T17:01:08.332Z,16.50
2023-03-23T17:03:35.540Z,16.40
2023-03-23T17:06:02.851Z,16.20
2023-03-23T17:08:29.702Z,16.30
2023-03-23T17:10:56.493Z,16.30
2023-03-23T17:13:25.466Z,16.20
2023-03-23T17:15:53.954Z,16.20
2023-03-23T17:18:21.300Z,16.10
2023-03-23T17:20:48.618Z,16.10
2023-03-23T17:23:17.186Z,16.00
2023-03-23T17:25:46.646Z,16.00
2023-03-23T17:28:13.549Z,15.90
2023-03-23T17:30:42.434Z,16.00
2023-03-23T17:33:09.954Z,16.00
2023-03-23T17:35:37.054Z,15.90
2023-03-23T17:38:03.976Z,15.60
2023-03-23T17:40:31.265Z,15.50
2023-03-23T17:42:58.201Z,15.70
2023-03-23T17:45:25.088Z,15.60
2023-03-23T17:47:52.074Z,15.70
2023-03-23T17:50:19.080Z,15.80
2023-03-23T17:52:45.907Z,15.70
2023-03-23T17:55:12.850Z,15.70
2023-03-23T17:57:39.799Z,16.00
2023-03-23T18:00:08.780Z,15.80
2023-03-23T18:02:36.912Z,16.00
2023-03-23T18:05:04.182Z,15.90
2023-03-23T18:10:00.411Z,16.20
2023-03-23T18:12:27.714Z,16.10
2023-03-23T18:14:58.493Z,16.10
2023-03-23T18:17:26.265Z,16.10
2023-03-23T18:19:53.500Z,16.10
2023-03-23T18:22:20.351Z,15.90
2023-03-23T18:24:47.554Z,16.00
2023-03-23T18:27:14.493Z,16.10
2023-03-23T18:29:41.617Z,16.00
2023-03-23T18:32:08.572Z,16.00
2023-03-23T18:34:36.430Z,16.00
2023-03-23T18:37:04.251Z,16.00
2023-03-23T18:39:34.029Z,15.90
2023-03-23T18:42:01.868Z,15.90
2023-03-23T18:44:28.799Z,15.90
2023-03-23T18:46:55.643Z,15.80
2023-03-23T18:49:23.373Z,15.80
2023-03-23T18:51:50.389Z,15.80
2023-03-23T18:54:17.722Z,15.70
2023-03-23T18:56:44.835Z,15.80
2023-03-23T18:59:11.978Z,15.90
2023-03-23T19:01:38.987Z,15.90
2023-03-23T19:04:06.710Z,15.90
2023-03-23T19:06:34.791Z,16.00
2023-03-23T19:09:02.349Z,16.00
2023-03-23T19:11:32.194Z,16.00
2023-03-23T19:14:02.818Z,15.90
2023-03-23T19:16:32.914Z,16.10
2023-03-23T19:19:02.025Z,16.20
2023-03-23T19:21:31.947Z,16.30
2023-03-23T19:24:00.073Z,16.50
2023-03-23T19:26:33.943Z,16.30
2023-03-23T19:29:25.369Z,16.30
2023-03-23T19:31:51.772Z,16.30
2023-03-23T19:34:18.952Z,16.40
2023-03-23T19:36:54.241Z,16.30
2023-03-23T19:39:23.726Z,16.20
2023-03-23T19:41:51.357Z,16.20
2023-03-23T19:44:18.603Z,16.20
2023-03-23T19:46:48.165Z,16.00
2023-03-23T19:49:15.531Z,16.20
2023-03-23T19:51:42.537Z,16.20
2023-03-23T19:54:09.540Z,16.30
2023-03-23T19:56:37.046Z,16.40
2023-03-23T19:59:05.043Z,16.20
2023-03-23T20:01:32.836Z,16.10
2023-03-23T20:04:01.857Z,16.10
2023-03-23T20:06:30.011Z,16.20
2023-03-23T20:09:00.265Z,16.30
2023-03-23T20:11:27.926Z,16.20
2023-03-23T20:13:55.538Z,16.10
2023-03-23T20:16:22.966Z,15.90
2023-03-23T20:18:50.239Z,16.10
2023-03-23T20:21:22.421Z,16.00
2023-03-23T20:23:54.203Z,16.00
2023-03-23T20:26:24.430Z,16.10
2023-03-23T20:28:52.328Z,16.00
2023-03-23T20:31:23.809Z,16.00
2023-03-23T20:34:00.544Z,16.20
2023-03-23T20:36:35.182Z,15.90
2023-03-23T20:39:06.397Z,16.00
2023-03-23T20:41:36.315Z,15.90
2023-03-23T20:44:04.998Z,16.00
2023-03-23T20:46:32.550Z,16.00
2023-03-23T20:49:01.088Z,15.90
2023-03-23T20:51:28.395Z,15.90
2023-03-23T20:53:55.721Z,15.90
2023-03-23T20:56:24.537Z,16.00
2023-03-23T20:58:52.042Z,15.80
2023-03-23T21:01:21.787Z,15.90
2023-03-23T21:03:52.628Z,15.80
2023-03-23T21:06:21.398Z,15.80
2023-03-23T21:08:48.476Z,15.90
2023-03-23T21:11:19.394Z,15.80
2023-03-23T21:13:46.929Z,15.80
2023-03-23T21:16:14.000Z,15.80
2023-03-23T21:18:41.969Z,15.90
2023-03-23T21:21:11.325Z,15.90
2023-03-23T21:23:47.378Z,15.90
2023-03-23T21:26:17.110Z,16.00
2023-03-23T21:28:45.506Z,16.00
2023-03-23T21:31:14.962Z,16.10
2023-03-23T21:33:42.470Z,16.10
2023-03-23T21:36:10.035Z,16.20
2023-03-23T21:38:38.549Z,16.20
2023-03-23T21:41:09.772Z,16.20
2023-03-23T21:43:37.154Z,16.20
2023-03-23T21:46:09.009Z,15.90
2023-03-23T21:48:38.735Z,16.00
2023-03-23T21:51:08.692Z,16.30
2023-03-23T21:53:37.152Z,16.10
2023-03-23T21:56:07.166Z,16.20
2023-03-23T21:58:34.372Z,16.20
2023-03-23T22:01:02.495Z,16.20
2023-03-23T22:03:32.844Z,16.20
2023-03-23T22:06:09.412Z,16.30
2023-03-23T22:08:38.399Z,16.30
2023-03-23T22:11:11.377Z,16.20
2023-03-23T22:13:39.224Z,16.10
2023-03-23T22:16:10.922Z,16.10
2023-03-23T22:18:39.169Z,16.10
2023-03-23T22:21:07.419Z,16.10
2023-03-23T22:23:35.731Z,15.90
2023-03-23T22:26:03.841Z,15.90
2023-03-23T22:28:32.359Z,15.90
2023-03-23T22:31:04.129Z,15.90
2023-03-23T22:33:32.278Z,15.90
2023-03-23T22:36:00.441Z,15.90
2023-03-23T22:38:27.328Z,15.80
2023-03-23T22:40:56.679Z,15.90
2023-03-23T22:43:24.337Z,15.80
2023-03-23T22:45:52.124Z,15.80
2023-03-23T22:48:20.209Z,15.70
2023-03-23T22:50:48.099Z,15.80
2023-03-23T22:53:16.885Z,15.80
2023-03-23T22:55:46.872Z,15.80
2023-03-23T22:58:14.306Z,15.70
2023-03-23T23:00:45.257Z,15.70
2023-03-23T23:03:12.604Z,15.70
2023-03-23T23:05:44.870Z,15.70
2023-03-23T23:08:14.161Z,15.70
2023-03-23T23:10:44.818Z,15.70
2023-03-23T23:13:13.116Z,15.80
2023-03-23T23:15:44.872Z,15.70
2023-03-23T23:18:13.053Z,15.80
2023-03-23T23:20:41.110Z,15.80
2023-03-23T23:23:08.281Z,15.70
2023-03-23T23:25:36.569Z,15.60
2023-03-23T23:28:05.191Z,15.50
2023-03-23T23:30:32.713Z,15.40
2023-03-23T23:32:59.751Z,15.30
2023-03-23T23:35:28.066Z,15.20
2023-03-23T23:37:55.255Z,15.20
2023-03-23T23:40:22.174Z,15.30
2023-03-23T23:42:51.619Z,15.30
2023-03-23T23:45:19.545Z,15.40
2023-03-23T23:47:47.163Z,15.40
2023-03-23T23:50:15.488Z,15.60
2023-03-23T23:52:44.797Z,15.90
2023-03-23T23:55:15.539Z,16.10
2023-03-23T23:57:44.239Z,16.10
